Terminal Aerodrome Forecast
Issued by NWS Sioux Falls, SD

Home | Current Version | Previous Version | Text Only | Print | Product List | Glossary On
Versions: 1 2 3 4 5 6 7 8 9 10 11 12 13 14 15 16 17 18 19 20 21 22 23 24 25 26 27 28 29 30 31 32 33 34 35 36 37 38
000
FTUS43 KFSD 061135
TAFSUX
TAF
KSUX 061135Z 0612/0712 VRB03KT 1/2SM FZFG VV002
      TEMPO 0612/0614 2SM BR SCT002
     FM061400 17005KT 4SM BR SCT250
     FM061600 20010KT P6SM SCT150
     FM070200 24008KT P6SM BKN100
     FM070700 29011KT P6SM SCT100=

USA.gov is the U.S. government's official web portal to all federal, state and local government web resources and services.